Time;durP1;ratioP1;P1;durP2;ratioP2;P2;SDS_P1;SDS_P2;PMS_P1;PMS_P2;Temp;Humidity;BMP_temperature;BMP_pressure;BME280_temperature;BME280_humidity;BME280_pressure;Samples;Min_cycle;Max_cycle;Signal;HPM_P1;HPM_P2
2022/01/19 00:07:08;;;;;;;21.3;29.8;;;;;;;-0.2;76.3;100430;;;;
2022/01/19 00:18:08;;;;;;;21.7;33.7;;;;;;;-0.2;76.4;100400;;;;
2022/01/19 00:28:08;;;;;;;21.7;33.7;;;;;;;0;76.1;100400;;;;
2022/01/19 00:38:08;;;;;;;22.2;32.3;;;;;;;0.1;76.2;100400;;;;
2022/01/19 00:48:08;;;;;;;22.2;32.3;;;;;;;0;75.9;100400;;;;
2022/01/19 00:59:08;;;;;;;22.2;32.3;;;;;;;0.2;75.8;100410;;;;
2022/01/19 01:09:08;;;;;;;23.1;39.2;;;;;;;0.2;75.5;100420;;;;
2022/01/19 01:20:08;;;;;;;23.1;39.2;;;;;;;0.3;75.1;100380;;;;
2022/01/19 01:31:09;;;;;;;23.1;39.2;;;;;;;0.4;74.9;100360;;;;
2022/01/19 01:41:09;;;;;;;14.8;26.1;;;;;;;0.4;74.4;100340;;;;
2022/01/19 02:03:09;;;;;;;14.8;26.1;;;;;;;0.5;74.4;100310;;;;
2022/01/19 02:25:08;;;;;;;12.6;23.5;;;;;;;0.6;73.3;100280;;;;
2022/01/19 02:57:11;;;;;;;8.9;18.6;;;;;;;0.7;72.2;100250;;;;
2022/01/19 03:09:12;;;;;;;7.6;14.8;;;;;;;0.6;72.3;100220;;;;
2022/01/19 03:18:08;;;;;;;7.6;14.8;;;;;;;0.7;72.6;100210;;;;
2022/01/19 03:28:08;;;;;;;7.6;14.8;;;;;;;0.7;72;100200;;;;
2022/01/19 03:39:08;;;;;;;8.5;17.1;;;;;;;0.7;72;100210;;;;
2022/01/19 03:49:11;;;;;;;8.5;17.1;;;;;;;0.7;72.1;100190;;;;
2022/01/19 04:00:08;;;;;;;8.5;17.1;;;;;;;0.7;71.9;100170;;;;
2022/01/19 04:11:08;;;;;;;6.8;11.8;;;;;;;0.7;71.5;100170;;;;
2022/01/19 04:22:08;;;;;;;6.8;11.8;;;;;;;0.7;71.4;100180;;;;
2022/01/19 04:32:12;;;;;;;6.8;11.8;;;;;;;0.7;71.4;100160;;;;
2022/01/19 04:54:37;;;;;;;6.6;11.8;;;;;;;0.7;71.8;100120;;;;
2022/01/19 05:04:21;;;;;;;6.6;11.8;;;;;;;0.6;71.6;100110;;;;
2022/01/19 05:14:08;;;;;;;7.2;12.3;;;;;;;0.5;71.7;100100;;;;
2022/01/19 05:24:08;;;;;;;7.2;12.3;;;;;;;0.4;72;100080;;;;
2022/01/19 05:35:08;;;;;;;7.2;12.3;;;;;;;0.3;72.3;100080;;;;
2022/01/19 05:45:08;;;;;;;9.1;15;;;;;;;0.3;72.4;100070;;;;
2022/01/19 05:55:08;;;;;;;9.1;15;;;;;;;0.2;72.3;100050;;;;
2022/01/19 06:05:08;;;;;;;9.1;15;;;;;;;0;72;100030;;;;
2022/01/19 06:15:08;;;;;;;9.4;13.9;;;;;;;-0.2;72.2;100020;;;;
2022/01/19 06:25:08;;;;;;;9.4;13.9;;;;;;;-0.4;72.6;100020;;;;
2022/01/19 06:36:08;;;;;;;9.4;13.9;;;;;;;-0.9;73.1;100000;;;;
2022/01/19 06:47:08;;;;;;;11.8;18.5;;;;;;;-1.2;73.3;99990;;;;
2022/01/19 06:58:08;;;;;;;11.8;18.5;;;;;;;-1.3;73;100000;;;;
2022/01/19 07:09:08;;;;;;;17.6;29.2;;;;;;;-1.4;72.9;99990;;;;
2022/01/19 07:20:08;;;;;;;17.6;29.2;;;;;;;-1.4;72.9;99990;;;;
2022/01/19 07:30:08;;;;;;;17.6;29.2;;;;;;;-1.4;72.8;99970;;;;
2022/01/19 07:40:09;;;;;;;31.4;45.7;;;;;;;-1.3;72.6;99950;;;;
2022/01/19 07:50:08;;;;;;;31.4;45.7;;;;;;;-1;72.1;99950;;;;
2022/01/19 08:00:08;;;;;;;31.4;45.7;;;;;;;-0.8;71.8;99930;;;;
2022/01/19 08:11:08;;;;;;;15.3;26.5;;;;;;;-0.5;71.2;99920;;;;
2022/01/19 08:21:08;;;;;;;15.3;26.5;;;;;;;-0.2;71;99930;;;;
2022/01/19 08:32:08;;;;;;;15.3;26.5;;;;;;;0;71.2;99920;;;;
2022/01/19 08:42:08;;;;;;;17.7;23.1;;;;;;;0.1;71;99900;;;;
2022/01/19 08:53:12;;;;;;;17.7;23.1;;;;;;;0.1;71.4;99870;;;;
2022/01/19 09:03:12;;;;;;;17.7;23.1;;;;;;;0.3;71.2;99880;;;;
2022/01/19 09:13:12;;;;;;;25.1;30.9;;;;;;;0.4;70.5;99850;;;;
2022/01/19 09:23:13;;;;;;;25.1;30.9;;;;;;;0.6;70.2;99840;;;;
2022/01/19 09:33:19;;;;;;;25.1;30.9;;;;;;;0.7;69.3;99830;;;;
2022/01/19 09:43:12;;;;;;;23.9;28;;;;;;;0.8;68.8;99800;;;;
2022/01/19 09:53:12;;;;;;;23.9;28;;;;;;;1.1;67.8;99800;;;;
2022/01/19 10:03:12;;;;;;;23.9;28;;;;;;;1.5;67.3;99780;;;;
2022/01/19 10:25:12;;;;;;;23.4;35.3;;;;;;;2.1;65;99730;;;;
2022/01/19 10:35:12;;;;;;;23.4;35.3;;;;;;;2.5;64;99710;;;;
2022/01/19 10:46:12;;;;;;;23;32.4;;;;;;;3;63.3;99700;;;;
2022/01/19 10:57:12;;;;;;;23;32.4;;;;;;;3.1;62.8;99670;;;;
2022/01/19 11:08:12;;;;;;;19.9;24.2;;;;;;;3.2;62.4;99650;;;;
2022/01/19 11:18:12;;;;;;;19.9;24.2;;;;;;;2.8;62.9;99640;;;;
2022/01/19 11:28:12;;;;;;;19.9;24.2;;;;;;;2.9;64.4;99620;;;;
2022/01/19 11:38:12;;;;;;;17;21.7;;;;;;;2.8;64.4;99590;;;;
2022/01/19 11:49:12;;;;;;;17;21.7;;;;;;;3;63.8;99580;;;;
2022/01/19 11:59:12;;;;;;;17;21.7;;;;;;;3;64.1;99560;;;;
2022/01/19 12:09:13;;;;;;;16.4;20.9;;;;;;;3;64.2;99530;;;;
2022/01/19 12:19:13;;;;;;;16.4;20.9;;;;;;;2.8;64.3;99510;;;;
2022/01/19 12:30:13;;;;;;;16.4;20.9;;;;;;;2.9;64.6;99500;;;;
2022/01/19 12:40:12;;;;;;;16.4;20.6;;;;;;;3;64.1;99470;;;;
2022/01/19 12:50:12;;;;;;;16.4;20.6;;;;;;;2.9;64.1;99430;;;;
2022/01/19 13:01:12;;;;;;;16.4;20.6;;;;;;;3;64.9;99420;;;;
2022/01/19 13:11:17;;;;;;;15.6;25.1;;;;;;;3.2;64.8;99400;;;;
2022/01/19 13:22:12;;;;;;;15.6;25.1;;;;;;;3.2;63.5;99390;;;;
2022/01/19 13:33:12;;;;;;;15.6;25.1;;;;;;;3.3;64.1;99370;;;;
2022/01/19 13:43:18;;;;;;;18;26.8;;;;;;;3.4;64.4;99370;;;;
2022/01/19 13:53:12;;;;;;;18;26.8;;;;;;;3.3;64.3;99360;;;;
2022/01/19 14:04:12;;;;;;;18;26.8;;;;;;;3.1;65.4;99340;;;;
2022/01/19 14:15:15;;;;;;;20.2;29.6;;;;;;;2.8;66.4;99330;;;;
2022/01/19 14:26:12;;;;;;;20.2;29.6;;;;;;;2.5;67.8;99310;;;;
2022/01/19 14:36:12;;;;;;;20.3;25.6;;;;;;;2.1;68.2;99300;;;;
2022/01/19 14:47:17;;;;;;;20.3;25.6;;;;;;;1.6;69.6;99270;;;;
2022/01/19 14:57:13;;;;;;;20.3;25.6;;;;;;;1.2;70.8;99250;;;;
2022/01/19 15:08:12;;;;;;;26.1;32.6;;;;;;;0.7;71.6;99240;;;;
2022/01/19 15:18:13;;;;;;;26.1;32.6;;;;;;;0.3;72.8;99220;;;;
2022/01/19 15:29:13;;;;;;;26.1;32.6;;;;;;;-0.2;73.5;99200;;;;
2022/01/19 15:39:12;;;;;;;31.2;39.7;;;;;;;-0.6;74.2;99190;;;;
2022/01/19 15:49:12;;;;;;;31.2;39.7;;;;;;;-0.9;74.9;99190;;;;
2022/01/19 15:59:12;;;;;;;31.2;39.7;;;;;;;-1.1;76.2;99170;;;;
2022/01/19 16:10:12;;;;;;;32.6;40.1;;;;;;;-1.2;76.8;99150;;;;
2022/01/19 16:20:13;;;;;;;32.6;40.1;;;;;;;-1.2;77.2;99140;;;;
2022/01/19 16:30:12;;;;;;;32.6;40.1;;;;;;;-1.4;77;99120;;;;
2022/01/19 16:40:12;;;;;;;44.4;56.8;;;;;;;-1.4;77.8;99110;;;;
2022/01/19 16:50:12;;;;;;;44.4;56.8;;;;;;;-1.3;77.8;99080;;;;
2022/01/19 17:01:12;;;;;;;44.4;56.8;;;;;;;-1.2;77.4;99080;;;;
2022/01/19 17:11:12;;;;;;;37.9;48.7;;;;;;;-1.3;77;99070;;;;
2022/01/19 17:22:12;;;;;;;37.9;48.7;;;;;;;-1.1;77;99060;;;;
2022/01/19 17:32:12;;;;;;;37.9;48.7;;;;;;;-0.9;76.2;99040;;;;
2022/01/19 17:43:12;;;;;;;42.9;54.7;;;;;;;-0.9;75.9;99010;;;;
2022/01/19 17:53:12;;;;;;;42.9;54.7;;;;;;;-0.7;75.4;98990;;;;
2022/01/19 18:03:12;;;;;;;42.9;54.7;;;;;;;-0.6;74.9;98970;;;;
2022/01/19 18:13:12;;;;;;;41.4;52.8;;;;;;;-0.6;74.5;98950;;;;
2022/01/19 18:23:12;;;;;;;41.4;52.8;;;;;;;-0.7;74.7;98930;;;;
2022/01/19 18:34:12;;;;;;;41.4;52.8;;;;;;;-1.1;74.9;98910;;;;
2022/01/19 18:44:12;;;;;;;53.5;61.6;;;;;;;-1.6;75.3;98890;;;;
2022/01/19 18:55:12;;;;;;;53.5;61.6;;;;;;;-2;76;98870;;;;
2022/01/19 19:05:12;;;;;;;54;64.4;;;;;;;-2.3;76.3;98870;;;;
2022/01/19 19:15:15;;;;;;;54;64.4;;;;;;;-2.5;77.6;98840;;;;
2022/01/19 19:25:15;;;;;;;54;64.4;;;;;;;-2.7;77.3;98820;;;;
2022/01/19 19:36:12;;;;;;;75.8;89.9;;;;;;;-3;77.7;98800;;;;
2022/01/19 19:46:12;;;;;;;75.8;89.9;;;;;;;-3.2;78.8;98780;;;;
2022/01/19 19:57:12;;;;;;;75.8;89.9;;;;;;;-3.2;78.8;98710;;;;
2022/01/19 20:08:12;;;;;;;95.6;117.9;;;;;;;-3.3;78.6;98680;;;;
2022/01/19 20:18:12;;;;;;;95.6;117.9;;;;;;;-3.3;78.7;98660;;;;
2022/01/19 20:28:12;;;;;;;95.6;117.9;;;;;;;-3.2;78.7;98650;;;;
2022/01/19 20:38:12;;;;;;;82.9;97.8;;;;;;;-3.3;79.2;98650;;;;
2022/01/19 20:49:12;;;;;;;82.9;97.8;;;;;;;-3.5;79.2;98650;;;;
2022/01/19 20:59:12;;;;;;;82.9;97.8;;;;;;;-3.6;79.5;98640;;;;
2022/01/19 21:09:12;;;;;;;127.2;149.1;;;;;;;-3.6;79.2;98640;;;;
2022/01/19 21:19:12;;;;;;;127.2;149.1;;;;;;;-3.3;79;98610;;;;
2022/01/19 21:29:12;;;;;;;127.2;149.1;;;;;;;-2.7;76.9;98610;;;;
2022/01/19 21:39:12;;;;;;;80.3;93.1;;;;;;;-2.7;76.5;98620;;;;
2022/01/19 21:49:12;;;;;;;80.3;93.1;;;;;;;-2.8;76.6;98630;;;;
2022/01/19 22:00:13;;;;;;;80.3;93.1;;;;;;;-2.4;76.5;98600;;;;
2022/01/19 22:11:12;;;;;;;91.1;114.6;;;;;;;-2.2;76.8;98600;;;;
2022/01/19 22:21:16;;;;;;;91.1;114.6;;;;;;;-2;76.7;98600;;;;
2022/01/19 22:32:12;;;;;;;91.1;114.6;;;;;;;-1.8;76.3;98580;;;;
2022/01/19 22:42:12;;;;;;;82.8;107.8;;;;;;;-1.9;76.5;98570;;;;
2022/01/19 22:52:12;;;;;;;82.8;107.8;;;;;;;-2.1;76.8;98550;;;;
2022/01/19 23:02:12;;;;;;;82.8;107.8;;;;;;;-2.3;77;98540;;;;
2022/01/19 23:13:14;;;;;;;95.7;115.6;;;;;;;-2.4;77.3;98530;;;;
2022/01/19 23:23:14;;;;;;;95.7;115.6;;;;;;;-2.5;77.8;98530;;;;
2022/01/19 23:33:15;;;;;;;95.7;115.6;;;;;;;-2.4;77.9;98530;;;;
2022/01/19 23:54:12;;;;;;;79.4;94.2;;;;;;;0;75.1;98530;;;;
